createdAt,value
2023-02-27T03:19:10.925Z,102057.53
2023-02-27T03:22:09.198Z,102052.44
2023-02-27T03:24:38.740Z,102054.28
2023-02-27T03:27:06.849Z,102058.81
2023-02-27T03:29:57.780Z,102061.44
2023-02-27T03:32:38.547Z,102060.50
2023-02-27T03:35:07.252Z,102061.41
2023-02-27T03:38:20.146Z,102064.94
2023-02-27T03:40:54.113Z,102061.41
2023-02-27T06:19:58.118Z,102177.78
2023-02-27T06:22:24.559Z,102178.72
2023-02-27T06:24:51.004Z,102183.81
2023-02-27T06:27:17.577Z,102177.75
2023-02-27T06:29:44.071Z,102177.72
2023-02-27T06:32:10.634Z,102179.53
2023-02-27T06:34:37.361Z,102179.44
2023-02-27T06:37:04.381Z,102180.28
2023-02-27T06:39:31.016Z,102181.25
2023-02-27T06:41:57.462Z,102187.16
2023-02-27T06:44:23.905Z,102193.25
2023-02-27T06:46:50.404Z,102196.72
2023-02-27T06:49:16.990Z,102188.84
2023-02-27T06:51:45.050Z,102179.09
2023-02-27T06:54:11.954Z,102177.97
2023-02-27T06:56:38.412Z,102179.72
2023-02-27T06:59:05.187Z,102183.03
2023-02-27T07:01:31.713Z,102179.28
2023-02-27T07:03:58.534Z,102187.00
2023-02-27T07:07:30.997Z,102182.63
2023-02-27T07:09:11.403Z,102201.16
2023-02-27T07:11:37.841Z,102219.69
2023-02-27T07:14:04.370Z,102222.16
2023-02-27T07:16:31.039Z,102233.47
2023-02-27T07:18:58.839Z,102238.66
2023-02-27T07:21:25.558Z,102244.63
2023-02-27T07:23:52.056Z,102243.78
2023-02-27T07:26:18.723Z,102246.19
2023-02-27T07:28:45.208Z,102243.38
2023-02-27T07:31:11.752Z,102241.50
2023-02-27T07:33:38.365Z,102245.88
2023-02-27T07:36:05.180Z,102249.44
2023-02-27T07:38:32.394Z,102256.34
2023-02-27T07:40:59.101Z,102249.34
2023-02-27T07:43:25.910Z,102250.94
2023-02-27T07:45:52.425Z,102247.56
2023-02-27T07:48:19.388Z,102256.16
2023-02-27T07:50:45.993Z,102260.63
2023-02-27T07:53:13.449Z,102247.41
2023-02-27T07:55:40.040Z,102263.16
2023-02-27T07:58:06.545Z,102251.75
2023-02-27T08:00:33.254Z,102255.97
2023-02-27T08:03:00.510Z,102248.88
2023-02-27T08:05:27.067Z,102250.59
2023-02-27T08:07:53.618Z,102259.97
2023-02-27T08:10:20.162Z,102262.34
2023-02-27T08:12:46.809Z,102256.16
2023-02-27T08:15:13.681Z,102258.59
2023-02-27T08:17:40.168Z,102265.47
2023-02-27T08:20:07.515Z,102259.31
2023-02-27T08:22:33.974Z,102265.16
2023-02-27T08:25:01.213Z,102269.38
2023-02-27T08:27:27.834Z,102274.22
2023-02-27T08:29:54.263Z,102268.22
2023-02-27T08:32:20.993Z,102268.72
2023-02-27T08:34:47.509Z,102266.72
2023-02-27T08:37:14.128Z,102273.00
2023-02-27T08:39:40.610Z,102265.03
2023-02-27T08:42:07.405Z,102272.69
2023-02-27T08:44:34.328Z,102266.50
2023-02-27T08:47:00.735Z,102269.91
2023-02-27T08:49:27.460Z,102274.28
2023-02-27T08:51:54.203Z,102263.53
2023-02-27T08:54:20.689Z,102271.44
2023-02-27T08:56:47.808Z,102273.09
2023-02-27T08:59:14.814Z,102277.09
2023-02-27T09:01:41.329Z,102274.19
2023-02-27T09:04:07.833Z,102267.28
2023-02-27T09:06:36.046Z,102276.88
2023-02-27T09:09:04.443Z,102273.66
2023-02-27T09:11:31.247Z,102271.59
2023-02-27T09:13:58.836Z,102267.81
2023-02-27T09:16:25.888Z,102270.22
2023-02-27T09:18:52.805Z,102269.09
2023-02-27T09:21:20.378Z,102273.13
2023-02-27T09:23:46.976Z,102278.47
2023-02-27T09:26:13.550Z,102284.69
2023-02-27T09:28:42.817Z,102281.06
2023-02-27T09:31:10.088Z,102284.06
2023-02-27T09:33:38.269Z,102292.06
2023-02-27T09:36:06.438Z,102296.66
2023-02-27T09:38:34.712Z,102290.91
2023-02-27T09:41:02.179Z,102303.72
2023-02-27T09:43:50.028Z,102282.97
2023-02-27T09:46:21.207Z,102287.59
2023-02-27T09:48:54.429Z,102283.75
2023-02-27T09:51:22.849Z,102290.03
2023-02-27T09:53:53.877Z,102294.09
2023-02-27T09:56:29.241Z,102295.94
2023-02-27T09:59:19.715Z,102309.69
2023-02-27T10:02:11.914Z,102300.25
2023-02-27T10:04:54.097Z,102292.84
2023-02-27T10:07:42.746Z,102298.03
2023-02-27T10:10:40.388Z,102306.28
2023-02-27T10:13:44.223Z,102312.31
2023-02-27T10:16:13.913Z,102309.66
2023-02-27T10:19:02.114Z,102310.38
2023-02-27T10:21:34.732Z,102312.91
2023-02-27T10:24:18.964Z,102310.88
2023-02-27T10:26:45.854Z,102309.13
2023-02-27T10:29:28.987Z,102315.00
2023-02-27T10:32:03.806Z,102317.22
2023-02-27T10:34:32.198Z,102311.47
2023-02-27T10:37:05.234Z,102319.69
2023-02-27T10:39:44.366Z,102324.78
2023-02-27T10:42:14.467Z,102318.53
2023-02-27T10:44:40.939Z,102323.53
2023-02-27T10:47:07.473Z,102319.69
2023-02-27T10:49:35.786Z,102330.72
2023-02-27T10:52:14.265Z,102328.47
2023-02-27T10:54:42.337Z,102337.41
2023-02-27T10:57:30.417Z,102330.31
2023-02-27T11:00:00.817Z,102340.03
2023-02-27T11:02:38.530Z,102335.16
2023-02-27T11:05:17.864Z,102333.41
2023-02-27T11:07:44.958Z,102328.38
2023-02-27T11:10:12.284Z,102322.03
2023-02-27T11:12:42.744Z,102328.28
2023-02-27T11:15:15.176Z,102324.91
2023-02-27T11:17:43.175Z,102317.25
2023-02-27T11:20:29.908Z,102333.06
2023-02-27T11:23:05.270Z,102332.88
2023-02-27T11:25:33.527Z,102325.50
2023-02-27T11:28:30.186Z,102323.25
2023-02-27T11:31:01.633Z,102325.78
2023-02-27T11:33:31.597Z,102328.06
2023-02-27T11:35:59.635Z,102319.84
2023-02-27T11:38:29.130Z,102317.81
2023-02-27T11:40:57.253Z,102320.59
2023-02-27T11:43:25.672Z,102318.47
2023-02-27T11:46:30.585Z,102317.50
2023-02-27T11:49:17.533Z,102314.91
2023-02-27T11:51:57.908Z,102308.59
2023-02-27T11:54:40.789Z,102302.91
2023-02-27T11:57:30.225Z,102307.91
2023-02-27T12:00:06.518Z,102305.66
2023-02-27T12:02:55.319Z,102306.81
2023-02-27T12:05:48.072Z,102312.81
2023-02-27T12:08:36.073Z,102317.09
2023-02-27T12:11:25.145Z,102315.63
2023-02-27T12:14:02.519Z,102312.38
2023-02-27T12:17:09.023Z,102306.13
2023-02-27T12:19:44.259Z,102309.41
2023-02-27T12:22:29.078Z,102303.69
2023-02-27T12:25:07.481Z,102306.69
2023-02-27T12:27:56.674Z,102308.56
2023-02-27T12:30:28.148Z,102304.03
2023-02-27T12:33:09.917Z,102303.19
2023-02-27T12:35:36.418Z,102304.66
2023-02-27T12:38:04.427Z,102310.50
2023-02-27T12:40:39.184Z,102308.13
2023-02-27T12:43:25.832Z,102314.34
2023-02-27T12:46:41.888Z,102303.75
2023-02-27T12:49:34.998Z,102302.69
2023-02-27T12:52:16.528Z,102306.66
2023-02-27T12:55:03.345Z,102309.72
2023-02-27T12:58:03.415Z,102310.09
2023-02-27T13:00:42.630Z,102309.75
2023-02-27T13:03:09.092Z,102308.16
2023-02-27T13:05:40.954Z,102312.31
2023-02-27T13:08:45.624Z,102311.78
2023-02-27T13:11:24.374Z,102314.19
2023-02-27T13:14:01.380Z,102315.53
2023-02-27T13:16:37.405Z,102307.59
2023-02-27T13:19:15.509Z,102314.28
2023-02-27T13:21:54.278Z,102316.94
2023-02-27T13:24:27.685Z,102316.03
2023-02-27T13:27:06.165Z,102316.69
2023-02-27T13:29:39.798Z,102311.22
2023-02-27T13:32:36.543Z,102310.97
2023-02-27T13:35:19.101Z,102315.47
2023-02-27T13:38:02.151Z,102315.47
2023-02-27T13:40:38.901Z,102313.38
2023-02-27T13:43:51.108Z,102315.63
2023-02-27T13:46:26.811Z,102307.81
2023-02-27T13:49:09.168Z,102305.31
2023-02-27T13:51:35.675Z,102300.78
2023-02-27T13:54:14.470Z,102303.19
2023-02-27T13:56:46.658Z,102302.81
2023-02-27T13:59:19.113Z,102303.78
2023-02-27T14:01:55.589Z,102308.88
2023-02-27T14:04:26.166Z,102300.00
2023-02-27T14:07:11.040Z,102302.72
2023-02-27T14:09:41.039Z,102308.69
2023-02-27T14:12:30.898Z,102306.16
2023-02-27T14:15:07.723Z,102305.84
2023-02-27T14:17:37.217Z,102312.09
2023-02-27T14:20:27.790Z,102320.72
2023-02-27T14:23:18.190Z,102314.59
2023-02-27T14:25:55.509Z,102316.25
2023-02-27T14:28:43.698Z,102310.84
2023-02-27T14:31:21.840Z,102319.78
2023-02-27T14:33:55.127Z,102323.38
2023-02-27T14:36:30.242Z,102320.00
2023-02-27T14:38:59.178Z,102327.06
2023-02-27T14:41:48.686Z,102320.66
2023-02-27T14:44:36.385Z,102329.59
2023-02-27T14:47:04.034Z,102323.91
2023-02-27T14:49:35.741Z,102327.66
2023-02-27T14:52:14.571Z,102332.75
2023-02-27T14:54:41.009Z,102341.00
2023-02-27T14:57:07.516Z,102341.88
2023-02-27T14:59:43.569Z,102336.97
2023-02-27T15:02:21.955Z,102341.47
2023-02-27T15:04:54.172Z,102343.94
2023-02-27T15:07:24.736Z,102346.56
2023-02-27T15:09:55.432Z,102349.19
2023-02-27T15:12:23.589Z,102349.97
2023-02-27T15:14:53.638Z,102349.03
2023-02-27T15:17:23.097Z,102348.84
2023-02-27T15:19:56.072Z,102342.63
2023-02-27T15:22:38.829Z,102335.84
2023-02-27T15:25:07.882Z,102341.03
2023-02-27T15:27:37.082Z,102355.16
2023-02-27T15:30:04.495Z,102341.09
2023-02-27T15:32:36.799Z,102347.34
2023-02-27T15:35:25.307Z,102348.34
2023-02-27T15:37:54.447Z,102353.34
2023-02-27T15:40:26.600Z,102353.25
2023-02-27T15:42:54.720Z,102353.13
2023-02-27T15:45:25.849Z,102354.88
2023-02-27T15:47:52.345Z,102356.59
2023-02-27T15:50:18.808Z,102347.00
2023-02-27T15:53:13.137Z,102350.88
2023-02-27T15:55:46.886Z,102363.03
2023-02-27T15:58:24.814Z,102366.56
2023-02-27T16:01:02.205Z,102363.56
2023-02-27T16:03:34.200Z,102363.94
2023-02-27T16:06:01.526Z,102366.56
2023-02-27T16:08:31.100Z,102371.84
2023-02-27T16:10:58.162Z,102365.00
2023-02-27T16:13:27.650Z,102367.66
2023-02-27T16:16:24.115Z,102374.53
2023-02-27T16:18:53.895Z,102374.44
2023-02-27T16:21:26.237Z,102378.09
2023-02-27T16:23:53.971Z,102380.16
2023-02-27T16:26:28.410Z,102379.22
2023-02-27T16:29:00.102Z,102379.31
2023-02-27T16:31:29.661Z,102389.78
2023-02-27T16:33:59.740Z,102383.88
2023-02-27T16:36:31.484Z,102398.75
2023-02-27T16:38:58.202Z,102393.50
2023-02-27T16:41:25.553Z,102391.59
2023-02-27T16:43:53.204Z,102390.88
2023-02-27T16:46:20.403Z,102390.06
2023-02-27T16:48:55.306Z,102386.50
2023-02-27T16:51:27.727Z,102390.00
2023-02-27T16:53:55.629Z,102381.06
2023-02-27T16:56:37.254Z,102388.47
2023-02-27T16:59:04.030Z,102393.50
2023-02-27T17:01:32.921Z,102384.03
2023-02-27T17:04:00.558Z,102384.50
2023-02-27T17:06:27.671Z,102393.31
2023-02-27T17:08:56.026Z,102394.34
2023-02-27T17:11:22.613Z,102392.66
2023-02-27T17:13:49.068Z,102393.41
2023-02-27T17:16:16.018Z,102392.59
2023-02-27T17:18:42.675Z,102398.78
2023-02-27T17:21:09.154Z,102402.16
2023-02-27T17:23:35.653Z,102399.59
2023-02-27T17:26:02.157Z,102413.56
2023-02-27T17:28:28.652Z,102404.63
2023-02-27T17:30:55.309Z,102401.38
2023-02-27T17:33:21.787Z,102404.81
2023-02-27T17:35:48.382Z,102403.09
2023-02-27T17:38:14.914Z,102398.78
2023-02-27T17:40:41.424Z,102410.31
2023-02-27T17:43:07.832Z,102408.59
2023-02-27T17:45:34.373Z,102412.34
2023-02-27T17:48:00.790Z,102406.59
2023-02-27T17:50:27.285Z,102408.31
2023-02-27T17:52:54.007Z,102406.66
2023-02-27T17:55:20.563Z,102415.59
2023-02-27T17:57:47.032Z,102412.97
2023-02-27T18:00:15.265Z,102412.81
2023-02-27T18:02:44.230Z,102413.88
2023-02-27T18:05:10.973Z,102406.06
2023-02-27T18:07:38.596Z,102409.69
2023-02-27T18:10:06.862Z,102400.63
2023-02-27T18:12:33.423Z,102404.50
2023-02-27T18:15:00.068Z,102405.38
2023-02-27T18:17:26.868Z,102401.78
2023-02-27T18:19:53.381Z,102396.44
2023-02-27T18:22:21.698Z,102399.28
2023-02-27T18:24:48.935Z,102404.59
2023-02-27T18:27:15.885Z,102408.78
2023-02-27T18:29:43.612Z,102402.69
2023-02-27T18:32:10.221Z,102408.88
2023-02-27T18:34:36.934Z,102409.00
2023-02-27T18:37:03.355Z,102418.63
2023-02-27T18:39:29.836Z,102416.81
2023-02-27T18:41:56.363Z,102423.66
2023-02-27T18:44:22.826Z,102413.22
2023-02-27T18:46:49.456Z,102417.53
2023-02-27T18:49:15.982Z,102413.13
2023-02-27T18:51:42.861Z,102416.50
2023-02-27T18:54:12.754Z,102425.22
2023-02-27T18:56:39.510Z,102421.13
2023-02-27T18:59:06.879Z,102421.97
2023-02-27T19:01:36.777Z,102427.38
2023-02-27T19:04:05.083Z,102433.31
2023-02-27T19:06:40.445Z,102427.25
2023-02-27T19:09:09.343Z,102428.22
2023-02-27T19:11:36.254Z,102424.59
2023-02-27T19:14:08.237Z,102427.47
2023-02-27T19:16:35.366Z,102435.81
2023-02-27T19:19:03.173Z,102442.78
2023-02-27T19:21:29.754Z,102433.59
2023-02-27T19:23:56.263Z,102437.84
2023-02-27T19:26:24.169Z,102435.31
2023-02-27T19:28:53.980Z,102436.25
2023-02-27T19:31:23.416Z,102439.84
2023-02-27T19:33:50.391Z,102435.47
2023-02-27T19:36:20.578Z,102437.59
2023-02-27T19:38:47.374Z,102440.00
2023-02-27T19:41:18.823Z,102440.66
2023-02-27T19:43:46.853Z,102447.00
2023-02-27T19:46:25.601Z,102444.44
2023-02-27T19:48:54.354Z,102445.38
2023-02-27T19:51:21.367Z,102445.44
2023-02-27T19:53:50.724Z,102444.75
2023-02-27T19:56:19.954Z,102436.81
2023-02-27T19:58:48.044Z,102435.69
2023-02-27T20:01:30.992Z,102439.25
2023-02-27T20:03:57.619Z,102435.13
2023-02-27T20:06:26.424Z,102429.00
2023-02-27T20:08:54.109Z,102437.78
2023-02-27T20:11:21.631Z,102440.53
2023-02-27T20:13:49.708Z,102440.53
2023-02-27T20:16:19.196Z,102443.34
2023-02-27T20:18:45.801Z,102438.00
2023-02-27T20:21:33.826Z,102443.50
2023-02-27T20:24:01.399Z,102435.66
2023-02-27T20:26:33.924Z,102444.47
2023-02-27T20:29:11.899Z,102443.56
2023-02-27T20:31:40.996Z,102442.88
2023-02-27T20:34:10.801Z,102451.63
2023-02-27T20:36:39.392Z,102447.19
2023-02-27T20:39:07.090Z,102445.50
2023-02-27T20:41:36.926Z,102445.50
2023-02-27T20:44:04.944Z,102443.56
2023-02-27T20:46:31.561Z,102445.25
2023-02-27T20:49:00.413Z,102441.72
2023-02-27T20:51:35.889Z,102445.13
2023-02-27T20:54:06.255Z,102447.03
2023-02-27T20:56:35.529Z,102452.38
2023-02-27T20:59:03.901Z,102445.25
2023-02-27T21:01:31.077Z,102451.22
2023-02-27T21:03:59.238Z,102452.38
2023-02-27T21:06:26.449Z,102453.16
2023-02-27T21:08:55.186Z,102449.66
2023-02-27T21:11:29.050Z,102454.97
2023-02-27T21:14:03.213Z,102459.25
2023-02-27T21:16:29.968Z,102457.50
2023-02-27T21:18:56.720Z,102454.19
2023-02-27T21:21:26.503Z,102449.66
2023-02-27T21:23:53.225Z,102459.38
2023-02-27T21:26:28.700Z,102449.75
2023-02-27T21:29:00.433Z,102447.97
2023-02-27T21:31:29.864Z,102454.03
2023-02-27T21:33:58.385Z,102456.56
2023-02-27T21:36:26.833Z,102450.41
2023-02-27T21:39:00.712Z,102458.22
2023-02-27T21:41:28.428Z,102451.44
2023-02-27T21:44:03.084Z,102456.88
2023-02-27T21:46:30.321Z,102463.72
2023-02-27T21:48:57.215Z,102454.09
2023-02-27T21:51:38.765Z,102461.06
2023-02-27T21:54:07.335Z,102457.66
2023-02-27T21:56:33.857Z,102452.31
2023-02-27T21:59:01.873Z,102453.19
2023-02-27T22:01:29.658Z,102457.56
2023-02-27T22:03:57.313Z,102456.88
2023-02-27T22:06:26.971Z,102462.16
2023-02-27T22:08:55.215Z,102453.53
2023-02-27T22:11:22.427Z,102455.44
2023-02-27T22:13:49.009Z,102456.44
2023-02-27T22:16:15.908Z,102453.97
2023-02-27T22:18:42.599Z,102455.66
2023-02-27T22:21:18.047Z,102457.31
2023-02-27T22:23:45.912Z,102462.63
2023-02-27T22:26:15.557Z,102458.22
2023-02-27T22:28:42.379Z,102462.56
2023-02-27T22:31:30.176Z,102453.75
2023-02-27T22:34:04.215Z,102455.81
2023-02-27T22:36:32.569Z,102454.97
2023-02-27T22:38:59.615Z,102458.50
2023-02-27T22:41:32.452Z,102465.63
2023-02-27T22:44:00.885Z,102464.00
2023-02-27T22:46:35.796Z,102462.28
2023-02-27T22:49:05.047Z,102469.94
2023-02-27T22:51:31.782Z,102471.16
2023-02-27T22:54:02.985Z,102476.41
2023-02-27T22:56:30.414Z,102477.16
2023-02-27T22:58:57.071Z,102474.56
2023-02-27T23:01:28.949Z,102487.00
2023-02-27T23:04:01.253Z,102483.59
2023-02-27T23:06:30.970Z,102479.03
2023-02-27T23:08:58.218Z,102483.47
2023-02-27T23:11:24.656Z,102483.31
2023-02-27T23:13:51.289Z,102493.09
2023-02-27T23:16:17.917Z,102488.72
2023-02-27T23:18:47.159Z,102491.28
2023-02-27T23:21:19.872Z,102484.34
2023-02-27T23:23:47.032Z,102489.69
2023-02-27T23:26:14.354Z,102491.53
2023-02-27T23:28:40.903Z,102493.25
2023-02-27T23:31:08.121Z,102496.06
2023-02-27T23:33:35.220Z,102498.56
2023-02-27T23:36:02.334Z,102503.75
2023-02-27T23:38:29.429Z,102494.16
2023-02-27T23:40:56.350Z,102497.56
2023-02-27T23:43:23.300Z,102498.63
2023-02-27T23:45:49.941Z,102507.31
2023-02-27T23:48:16.589Z,102500.28
2023-02-27T23:50:44.509Z,102510.00
2023-02-27T23:53:13.490Z,102501.25
2023-02-27T23:55:40.631Z,102510.97
2023-02-27T23:58:10.195Z,102518.75
